createdAt,value
2022-11-29T00:01:03.095Z,76.89
2022-11-29T00:03:31.390Z,76.79
2022-11-29T00:06:07.049Z,76.35
2022-11-29T00:08:35.282Z,76.35
2022-11-29T00:11:06.643Z,76.30
2022-11-29T00:13:35.690Z,76.53
2022-11-29T00:16:05.310Z,76.69
2022-11-29T00:18:33.158Z,76.81
2022-11-29T00:21:01.222Z,76.91
2022-11-29T00:23:28.845Z,76.95
2022-11-29T00:25:56.493Z,76.39
2022-11-29T00:28:24.135Z,75.82
2022-11-29T00:30:53.321Z,76.37
2022-11-29T00:33:21.041Z,76.21
2022-11-29T00:35:48.714Z,76.50
2022-11-29T00:38:16.361Z,76.52
2022-11-29T00:40:43.967Z,77.30
2022-11-29T00:43:11.575Z,77.65
2022-11-29T00:45:39.282Z,77.90
2022-11-29T00:48:08.416Z,77.77
2022-11-29T00:50:36.022Z,77.52
2022-11-29T00:53:03.723Z,77.00
2022-11-29T00:55:32.448Z,76.85
2022-11-29T00:58:00.255Z,76.82
2022-11-29T01:00:28.151Z,76.86
2022-11-29T01:02:55.804Z,76.85
2022-11-29T01:05:25.032Z,76.95
2022-11-29T01:07:52.692Z,76.37
2022-11-29T01:10:20.657Z,76.07
2022-11-29T01:12:48.354Z,76.38
2022-11-29T01:15:16.107Z,76.52
2022-11-29T01:17:43.680Z,76.20
2022-11-29T01:20:13.445Z,76.27
2022-11-29T01:22:42.459Z,76.28
2022-11-29T01:25:12.482Z,76.06
2022-11-29T01:27:40.440Z,76.54
2022-11-29T01:30:11.073Z,76.62
2022-11-29T01:32:39.162Z,76.53
2022-11-29T01:35:07.828Z,76.70
2022-11-29T01:37:35.504Z,76.60
2022-11-29T01:40:05.374Z,76.77
2022-11-29T01:42:33.248Z,76.86
2022-11-29T01:45:08.204Z,76.89
2022-11-29T01:47:47.344Z,77.28
2022-11-29T01:50:15.300Z,77.04
2022-11-29T01:52:43.173Z,76.81
2022-11-29T01:55:13.351Z,76.55
2022-11-29T01:57:42.517Z,76.74
2022-11-29T02:00:12.886Z,76.57
2022-11-29T02:02:43.557Z,76.59
2022-11-29T02:05:13.643Z,76.90
2022-11-29T02:07:44.544Z,76.87
2022-11-29T02:10:16.458Z,77.00
2022-11-29T02:12:59.941Z,77.15
2022-11-29T02:15:40.190Z,76.82
2022-11-29T02:18:12.150Z,76.69
2022-11-29T02:21:03.826Z,77.29
2022-11-29T02:24:07.465Z,77.88
2022-11-29T02:27:14.154Z,77.70
2022-11-29T02:30:07.904Z,78.28
2022-11-29T02:33:03.585Z,77.97
2022-11-29T02:35:49.782Z,77.78
2022-11-29T02:38:34.111Z,77.86
2022-11-29T02:41:19.832Z,78.34
2022-11-29T02:44:03.919Z,78.00
2022-11-29T02:46:52.702Z,77.84
2022-11-29T02:49:32.528Z,77.81
2022-11-29T02:52:02.994Z,77.78
2022-11-29T02:54:39.784Z,77.49
2022-11-29T02:57:20.474Z,77.44
2022-11-29T02:59:55.924Z,77.46
2022-11-29T03:02:32.648Z,77.72
2022-11-29T03:05:10.666Z,77.76
2022-11-29T03:07:46.166Z,77.88
2022-11-29T03:10:24.434Z,77.47
2022-11-29T03:12:54.740Z,77.63
2022-11-29T03:15:30.002Z,77.73
2022-11-29T03:18:09.850Z,77.98
2022-11-29T03:20:55.061Z,77.71
2022-11-29T03:23:26.747Z,77.70
2022-11-29T03:26:00.369Z,77.74
2022-11-29T03:28:32.260Z,77.52
2022-11-29T03:31:07.843Z,77.90
2022-11-29T03:33:42.747Z,78.50
2022-11-29T03:36:19.059Z,77.97
2022-11-29T03:38:48.524Z,78.13
2022-11-29T03:41:26.261Z,77.88
2022-11-29T03:44:00.649Z,77.72
2022-11-29T03:46:33.030Z,77.78
2022-11-29T03:49:04.680Z,78.44
2022-11-29T03:51:44.816Z,78.26
2022-11-29T03:54:17.561Z,78.30
2022-11-29T03:56:45.756Z,78.56
2022-11-29T03:59:41.624Z,78.50
2022-11-29T04:02:34.722Z,78.25
2022-11-29T04:05:30.360Z,78.09
2022-11-29T04:08:08.854Z,78.16
2022-11-29T04:10:58.164Z,78.53
2022-11-29T04:14:11.762Z,78.56
2022-11-29T04:17:19.069Z,77.89
2022-11-29T04:20:36.277Z,77.79
2022-11-29T04:23:38.827Z,77.61
2022-11-29T04:26:41.166Z,78.29
2022-11-29T04:29:16.573Z,78.08
2022-11-29T04:32:02.649Z,78.23
2022-11-29T04:34:51.261Z,78.17
2022-11-29T04:37:48.077Z,78.01
2022-11-29T04:40:33.059Z,78.14
2022-11-29T04:43:31.335Z,78.52
2022-11-29T04:46:32.886Z,78.43
2022-11-29T04:49:16.760Z,78.57
2022-11-29T04:52:01.605Z,78.65
2022-11-29T04:54:36.653Z,78.73
2022-11-29T04:57:12.528Z,78.32
2022-11-29T04:59:47.027Z,78.41
2022-11-29T05:02:27.760Z,78.26
2022-11-29T05:05:05.021Z,78.09
2022-11-29T05:07:40.419Z,77.95
2022-11-29T05:10:25.372Z,78.01
2022-11-29T05:13:04.884Z,78.00
2022-11-29T05:16:09.702Z,78.29
2022-11-29T05:19:07.588Z,78.19
2022-11-29T05:21:49.526Z,78.65
2022-11-29T05:24:29.950Z,78.89
2022-11-29T05:27:07.952Z,78.93
2022-11-29T05:29:42.959Z,79.36
2022-11-29T05:32:26.948Z,79.49
2022-11-29T05:35:20.428Z,79.32
2022-11-29T05:37:51.473Z,79.51
2022-11-29T05:40:37.220Z,79.44
2022-11-29T05:43:19.703Z,79.26
2022-11-29T05:45:56.592Z,79.06
2022-11-29T05:48:32.479Z,78.90
2022-11-29T05:51:12.350Z,78.86
2022-11-29T05:53:46.956Z,79.19
2022-11-29T05:56:30.091Z,79.44
2022-11-29T05:59:02.064Z,79.20
2022-11-29T06:01:36.189Z,78.96
2022-11-29T06:04:14.582Z,78.79
2022-11-29T06:06:48.737Z,79.11
2022-11-29T06:09:22.960Z,78.71
2022-11-29T06:11:56.632Z,78.78
2022-11-29T06:14:55.416Z,78.75
2022-11-29T06:17:43.157Z,78.61
2022-11-29T06:20:27.762Z,78.48
2022-11-29T06:23:28.959Z,78.61
2022-11-29T06:26:11.948Z,78.71
2022-11-29T06:28:55.725Z,78.92
2022-11-29T06:31:28.331Z,78.48
2022-11-29T06:34:07.403Z,78.24
2022-11-29T06:36:41.056Z,77.96
2022-11-29T06:39:10.861Z,78.46
2022-11-29T06:41:38.735Z,78.27
2022-11-29T06:44:07.389Z,78.16
2022-11-29T06:46:45.687Z,77.56
2022-11-29T06:49:23.495Z,77.50
2022-11-29T06:52:03.592Z,77.34
2022-11-29T06:54:43.197Z,77.44
2022-11-29T06:57:19.678Z,77.21
2022-11-29T07:00:02.405Z,77.21
2022-11-29T07:02:45.612Z,76.95
2022-11-29T07:05:24.748Z,76.84
2022-11-29T07:07:55.077Z,77.18
2022-11-29T07:10:23.900Z,77.42
2022-11-29T07:12:52.494Z,78.00
2022-11-29T07:15:22.592Z,77.90
2022-11-29T07:18:03.276Z,78.01
2022-11-29T07:20:40.395Z,77.94
2022-11-29T07:23:17.519Z,78.08
2022-11-29T07:25:56.882Z,77.94
2022-11-29T07:28:36.073Z,77.65
2022-11-29T07:31:10.480Z,77.64
2022-11-29T07:33:49.526Z,77.68
2022-11-29T07:36:28.170Z,77.02
2022-11-29T07:39:04.628Z,77.11
2022-11-29T07:41:43.349Z,77.77
2022-11-29T07:44:18.571Z,77.88
2022-11-29T07:46:46.281Z,77.82
2022-11-29T07:49:13.937Z,77.57
2022-11-29T07:51:43.064Z,77.03
2022-11-29T07:54:11.699Z,77.24
2022-11-29T07:56:39.310Z,77.46
2022-11-29T07:59:10.950Z,77.23
2022-11-29T08:01:38.597Z,77.37
2022-11-29T08:04:06.851Z,77.21
2022-11-29T08:06:35.145Z,77.31
2022-11-29T08:09:06.807Z,77.57
2022-11-29T08:11:34.675Z,76.96
2022-11-29T08:14:03.632Z,77.10
2022-11-29T08:16:31.330Z,77.02
2022-11-29T08:18:59.135Z,76.99
2022-11-29T08:21:27.201Z,76.78
2022-11-29T08:23:54.913Z,76.53
2022-11-29T08:26:28.229Z,77.06
2022-11-29T08:28:59.019Z,77.19
2022-11-29T08:31:26.704Z,76.94
2022-11-29T08:33:54.298Z,77.15
2022-11-29T08:36:22.380Z,77.11
2022-11-29T08:38:52.831Z,77.04
2022-11-29T08:41:26.211Z,77.09
2022-11-29T08:43:53.835Z,77.05
2022-11-29T08:46:21.436Z,76.73
2022-11-29T08:48:49.563Z,77.36
2022-11-29T08:51:17.239Z,77.65
2022-11-29T08:53:45.994Z,77.66
2022-11-29T08:57:04.521Z,77.91
2022-11-29T08:59:04.853Z,77.80
2022-11-29T09:01:32.581Z,77.83
2022-11-29T09:04:07.820Z,77.75
2022-11-29T09:06:39.371Z,77.31
2022-11-29T09:09:07.455Z,77.05
2022-11-29T09:11:37.091Z,76.48
2022-11-29T09:14:08.179Z,76.46
2022-11-29T09:16:38.298Z,76.41
2022-11-29T09:19:06.687Z,76.70
2022-11-29T09:21:36.662Z,76.59
2022-11-29T09:24:06.420Z,76.14
2022-11-29T09:26:35.724Z,76.40
2022-11-29T09:29:06.768Z,76.67
2022-11-29T09:31:35.200Z,76.55
2022-11-29T09:34:03.146Z,76.29
2022-11-29T09:36:30.957Z,75.80
2022-11-29T09:38:59.072Z,75.64
2022-11-29T09:42:09.823Z,75.85
2022-11-29T09:44:50.497Z,76.49
2022-11-29T09:47:32.874Z,76.79
2022-11-29T09:50:17.700Z,76.10
2022-11-29T09:52:52.085Z,75.78
2022-11-29T09:55:39.238Z,75.81
2022-11-29T09:58:11.547Z,76.49
2022-11-29T10:00:51.220Z,75.72
2022-11-29T10:03:25.373Z,75.26
2022-11-29T10:05:58.329Z,75.32
2022-11-29T10:08:32.546Z,74.98
2022-11-29T10:11:15.255Z,75.61
2022-11-29T10:13:48.351Z,75.96
2022-11-29T10:16:24.966Z,75.50
2022-11-29T10:18:59.472Z,75.67
2022-11-29T10:21:34.038Z,75.79
2022-11-29T10:24:05.568Z,75.55
2022-11-29T10:26:35.518Z,75.43
2022-11-29T10:29:03.598Z,75.29
2022-11-29T10:31:40.118Z,75.26
2022-11-29T10:34:14.120Z,75.44
2022-11-29T10:36:45.064Z,75.93
2022-11-29T10:39:17.143Z,75.93
2022-11-29T10:41:45.239Z,76.05
2022-11-29T10:44:15.434Z,76.59
2022-11-29T10:46:44.433Z,76.81
2022-11-29T10:49:16.001Z,77.03
2022-11-29T10:51:43.971Z,75.78
2022-11-29T10:54:26.480Z,76.12
2022-11-29T10:56:56.737Z,75.47
2022-11-29T10:59:25.958Z,75.46
2022-11-29T11:01:55.798Z,76.21
2022-11-29T11:04:29.190Z,76.49
2022-11-29T11:07:01.027Z,76.73
2022-11-29T11:09:37.363Z,76.79
2022-11-29T11:12:08.032Z,76.91
2022-11-29T11:14:38.631Z,76.63
2022-11-29T11:17:26.046Z,76.86
2022-11-29T11:20:00.761Z,77.62
2022-11-29T11:22:29.929Z,78.03
2022-11-29T11:25:00.683Z,76.28
2022-11-29T11:27:33.773Z,75.10
2022-11-29T11:30:02.843Z,74.90
2022-11-29T11:32:31.860Z,75.10
2022-11-29T11:35:01.178Z,75.08
2022-11-29T11:37:30.617Z,74.60
2022-11-29T11:40:00.670Z,74.60
2022-11-29T11:42:39.378Z,75.29
2022-11-29T11:45:26.655Z,75.23
2022-11-29T11:47:58.642Z,75.40
2022-11-29T11:50:30.299Z,75.71
2022-11-29T11:52:59.479Z,75.36
2022-11-29T11:55:32.269Z,75.40
2022-11-29T11:58:10.367Z,75.89
2022-11-29T12:01:03.353Z,76.42
2022-11-29T12:03:50.917Z,77.27
2022-11-29T12:06:30.145Z,77.74
2022-11-29T12:09:04.693Z,78.18
2022-11-29T12:11:39.095Z,78.28
2022-11-29T12:14:09.007Z,78.08
2022-11-29T12:16:40.211Z,78.19
2022-11-29T12:19:24.482Z,78.36
2022-11-29T12:21:55.971Z,77.89
2022-11-29T12:24:30.454Z,76.86
2022-11-29T12:27:04.412Z,77.10
2022-11-29T12:29:34.731Z,77.13
2022-11-29T12:32:15.602Z,76.51
2022-11-29T12:35:00.762Z,76.27
2022-11-29T12:37:36.165Z,75.66
2022-11-29T12:40:07.718Z,76.05
2022-11-29T12:42:50.192Z,76.22
2022-11-29T12:45:39.338Z,76.31
2022-11-29T12:48:17.311Z,76.68
2022-11-29T12:50:59.498Z,76.93
2022-11-29T12:53:45.866Z,76.67
2022-11-29T12:56:17.068Z,76.68
2022-11-29T12:58:57.316Z,76.62
2022-11-29T13:01:34.533Z,76.98
2022-11-29T13:04:13.115Z,77.24
2022-11-29T13:06:50.486Z,77.57
2022-11-29T13:09:33.903Z,77.31
2022-11-29T13:12:07.425Z,77.29
2022-11-29T13:14:44.277Z,76.46
2022-11-29T13:17:25.298Z,76.54
2022-11-29T13:19:57.098Z,76.85
2022-11-29T13:22:31.657Z,77.14
2022-11-29T13:25:02.927Z,77.21
2022-11-29T13:27:34.196Z,77.46
2022-11-29T13:30:02.522Z,77.62
2022-11-29T13:32:36.263Z,77.87
2022-11-29T13:35:09.556Z,77.80
2022-11-29T13:37:43.510Z,77.83
2022-11-29T13:40:24.635Z,77.92
2022-11-29T13:43:02.229Z,77.95
2022-11-29T13:45:38.513Z,78.19
2022-11-29T13:48:32.816Z,78.24
2022-11-29T13:51:30.760Z,78.01
2022-11-29T13:54:03.096Z,78.52
2022-11-29T13:56:36.707Z,78.26
2022-11-29T13:59:09.641Z,78.62
2022-11-29T14:01:51.471Z,78.64
2022-11-29T14:04:33.287Z,78.77
2022-11-29T14:07:11.251Z,78.52
2022-11-29T14:09:59.399Z,78.45
2022-11-29T14:12:37.644Z,78.73
2022-11-29T14:15:18.754Z,78.94
2022-11-29T14:17:52.438Z,79.06
2022-11-29T14:20:55.665Z,78.85
2022-11-29T14:23:43.816Z,78.63
2022-11-29T14:26:31.403Z,78.93
2022-11-29T14:29:00.143Z,78.88
2022-11-29T14:31:51.178Z,78.98
2022-11-29T14:34:46.830Z,78.91
2022-11-29T14:37:48.441Z,78.88
2022-11-29T14:40:30.011Z,78.99
2022-11-29T14:42:59.356Z,78.44
2022-11-29T14:45:29.983Z,78.51
2022-11-29T14:47:59.273Z,78.27
2022-11-29T14:50:33.283Z,78.69
2022-11-29T14:53:01.978Z,78.83
2022-11-29T14:55:36.799Z,78.82
2022-11-29T14:58:20.904Z,79.17
2022-11-29T15:01:09.515Z,79.17
2022-11-29T15:03:43.491Z,79.25
2022-11-29T15:06:16.185Z,79.27
2022-11-29T15:08:55.077Z,79.41
2022-11-29T15:11:32.887Z,79.50
2022-11-29T15:14:05.906Z,79.27
2022-11-29T15:16:45.557Z,79.27
2022-11-29T15:19:46.406Z,79.30
2022-11-29T15:22:18.752Z,79.29
2022-11-29T15:24:54.850Z,79.28
2022-11-29T15:27:22.959Z,79.45
2022-11-29T15:29:52.773Z,79.62
2022-11-29T15:32:26.786Z,79.61
2022-11-29T15:34:56.850Z,79.70
2022-11-29T15:37:39.734Z,79.55
2022-11-29T15:40:12.720Z,79.41
2022-11-29T15:42:43.430Z,79.30
2022-11-29T15:45:31.546Z,79.40
2022-11-29T15:48:14.479Z,79.51
2022-11-29T15:50:47.458Z,79.93
2022-11-29T15:53:19.519Z,79.86
2022-11-29T15:55:49.531Z,79.78
2022-11-29T15:58:18.421Z,79.79
2022-11-29T16:00:50.470Z,79.91
2022-11-29T16:03:25.144Z,79.74
2022-11-29T16:06:01.114Z,80.02
2022-11-29T16:08:32.557Z,79.79
2022-11-29T16:11:01.413Z,79.93
2022-11-29T16:13:37.665Z,80.05
2022-11-29T16:16:15.729Z,79.79
2022-11-29T16:18:45.906Z,79.89
2022-11-29T16:21:26.124Z,79.58
2022-11-29T16:23:54.605Z,79.69
2022-11-29T16:26:27.467Z,79.88
2022-11-29T16:28:57.845Z,79.53
2022-11-29T16:31:34.260Z,79.74
2022-11-29T16:34:08.974Z,79.85
2022-11-29T16:36:40.448Z,80.07
2022-11-29T16:39:17.409Z,79.83
2022-11-29T16:41:45.083Z,79.64
2022-11-29T16:45:00.795Z,79.03
2022-11-29T16:47:31.468Z,79.23
2022-11-29T16:50:15.193Z,78.87
2022-11-29T16:52:43.295Z,78.81
2022-11-29T16:55:10.961Z,79.00
2022-11-29T16:57:39.156Z,79.07
2022-11-29T17:00:22.449Z,79.13
2022-11-29T17:02:51.542Z,79.19
2022-11-29T17:05:19.152Z,79.11
2022-11-29T17:07:47.344Z,78.65
2022-11-29T17:10:19.688Z,78.77
2022-11-29T17:12:48.434Z,78.87
2022-11-29T17:15:16.534Z,78.40
2022-11-29T17:17:44.439Z,78.44
2022-11-29T17:20:14.467Z,78.43
2022-11-29T17:22:42.505Z,77.52
2022-11-29T17:25:13.419Z,77.88
2022-11-29T17:27:41.553Z,77.92
2022-11-29T17:30:11.376Z,78.05
2022-11-29T17:32:39.170Z,78.23
2022-11-29T17:35:09.146Z,78.35
2022-11-29T17:37:59.653Z,78.29
2022-11-29T17:40:27.393Z,78.43
2022-11-29T17:43:45.833Z,78.24
2022-11-29T17:46:15.810Z,78.32
2022-11-29T17:49:01.317Z,78.19
2022-11-29T17:54:18.201Z,78.31
2022-11-29T17:56:45.989Z,78.42
2022-11-29T17:59:13.813Z,78.46
2022-11-29T18:05:12.811Z,78.24
2022-11-29T18:08:19.927Z,78.39
2022-11-29T18:11:20.067Z,78.51
2022-11-29T18:14:06.227Z,78.54
2022-11-29T18:28:04.292Z,78.10
2022-11-29T18:30:32.008Z,77.74
2022-11-29T18:32:59.787Z,76.90
2022-11-29T18:35:28.006Z,74.57
2022-11-29T18:38:14.853Z,75.27
2022-11-29T18:40:45.532Z,75.46
2022-11-29T18:43:17.654Z,75.72
2022-11-29T18:45:45.568Z,76.21
2022-11-29T18:48:13.226Z,75.81
2022-11-29T18:50:40.842Z,75.96
2022-11-29T18:53:08.469Z,76.51
2022-11-29T18:55:37.883Z,76.44
2022-11-29T18:58:07.902Z,76.16
2022-11-29T19:00:36.868Z,76.42
2022-11-29T19:03:04.740Z,76.74
2022-11-29T19:05:32.357Z,76.54
2022-11-29T19:08:00.023Z,76.97
2022-11-29T19:10:27.736Z,76.67
2022-11-29T19:12:55.683Z,76.81
2022-11-29T19:15:23.262Z,76.84
2022-11-29T19:17:52.243Z,76.93
2022-11-29T19:20:48.340Z,76.60
2022-11-29T19:23:24.458Z,76.37
2022-11-29T19:25:54.871Z,75.61
2022-11-29T19:28:35.062Z,75.52
2022-11-29T19:31:12.252Z,75.88
2022-11-29T19:33:46.980Z,76.32
2022-11-29T19:36:34.709Z,76.45
2022-11-29T19:39:17.982Z,76.79
2022-11-29T19:41:54.044Z,77.09
2022-11-29T19:44:48.326Z,76.65
2022-11-29T19:47:20.431Z,76.55
2022-11-29T19:49:49.696Z,76.85
2022-11-29T19:52:17.576Z,76.71
2022-11-29T19:54:45.178Z,76.26
2022-11-29T19:57:16.971Z,76.39
2022-11-29T19:59:47.801Z,76.36
2022-11-29T20:02:18.128Z,76.42
2022-11-29T20:04:49.020Z,75.92
2022-11-29T20:07:19.974Z,75.77
2022-11-29T20:09:49.897Z,75.87
2022-11-29T20:12:26.611Z,75.82
2022-11-29T20:14:54.241Z,75.87
2022-11-29T20:17:26.425Z,75.96
2022-11-29T20:19:54.203Z,76.25
2022-11-29T20:22:23.248Z,76.38
2022-11-29T20:24:50.989Z,76.41
2022-11-29T20:27:23.836Z,76.27
2022-11-29T20:29:51.463Z,76.49
2022-11-29T20:32:20.037Z,76.48
2022-11-29T20:34:48.406Z,76.73
2022-11-29T20:37:44.252Z,76.43
2022-11-29T20:40:16.903Z,76.60
2022-11-29T20:43:04.257Z,76.85
2022-11-29T20:45:32.392Z,77.24
2022-11-29T20:48:05.500Z,77.28
2022-11-29T20:50:33.900Z,76.81
2022-11-29T20:53:15.578Z,77.07
2022-11-29T20:55:47.889Z,77.00
2022-11-29T20:58:16.096Z,77.30
2022-11-29T21:00:45.805Z,77.44
2022-11-29T21:03:16.043Z,77.66
2022-11-29T21:05:43.759Z,77.54
2022-11-29T21:08:14.055Z,77.44
2022-11-29T21:10:41.768Z,77.46
2022-11-29T21:13:10.964Z,77.56
2022-11-29T21:15:39.044Z,77.25
2022-11-29T21:18:07.459Z,77.42
2022-11-29T21:20:35.590Z,77.10
2022-11-29T21:23:10.022Z,77.02
2022-11-29T21:25:50.703Z,77.36
2022-11-29T21:28:18.838Z,77.68
2022-11-29T21:30:46.947Z,77.24
2022-11-29T21:33:15.820Z,77.17
2022-11-29T21:35:43.461Z,77.18
2022-11-29T21:38:14.247Z,77.18
2022-11-29T21:40:43.321Z,77.08
2022-11-29T21:43:10.930Z,77.11
2022-11-29T21:45:38.542Z,77.14
2022-11-29T21:48:27.502Z,77.10
2022-11-29T21:51:08.748Z,77.09
2022-11-29T21:53:37.990Z,77.14
2022-11-29T21:56:09.796Z,76.99
2022-11-29T21:58:39.279Z,77.06
2022-11-29T22:01:09.204Z,76.72
2022-11-29T22:03:36.870Z,76.66
2022-11-29T22:06:05.768Z,76.18
2022-11-29T22:08:38.813Z,76.15
2022-11-29T22:11:09.205Z,75.88
2022-11-29T22:13:37.125Z,75.68
2022-11-29T22:16:07.097Z,75.81
2022-11-29T22:18:35.026Z,75.86
2022-11-29T22:21:04.075Z,75.74
2022-11-29T22:23:31.887Z,74.31
2022-11-29T22:26:08.736Z,73.76
2022-11-29T22:28:36.923Z,73.70
2022-11-29T22:31:07.275Z,74.12
2022-11-29T22:33:44.114Z,74.57
2022-11-29T22:36:18.924Z,74.72
2022-11-29T22:38:50.153Z,75.02
2022-11-29T22:41:22.136Z,74.43
2022-11-29T22:44:01.679Z,74.13
2022-11-29T22:46:30.464Z,74.04
2022-11-29T22:49:02.267Z,74.07
2022-11-29T22:51:33.075Z,74.21
2022-11-29T22:54:04.320Z,74.00
2022-11-29T22:56:36.276Z,74.12
2022-11-29T23:02:47.798Z,73.69
2022-11-29T23:05:15.527Z,74.57
2022-11-29T23:07:43.196Z,74.19
2022-11-29T23:10:11.707Z,73.99
2022-11-29T23:12:40.692Z,74.27
2022-11-29T23:15:08.670Z,74.82
2022-11-29T23:17:36.288Z,75.10
2022-11-29T23:20:05.215Z,74.98
2022-11-29T23:22:32.887Z,74.95
2022-11-29T23:25:00.469Z,75.08
2022-11-29T23:27:28.145Z,73.81
2022-11-29T23:29:57.086Z,74.06
2022-11-29T23:32:24.709Z,73.77
2022-11-29T23:34:52.345Z,71.00
2022-11-29T23:37:19.961Z,71.04
2022-11-29T23:39:47.597Z,71.16
2022-11-29T23:42:15.441Z,70.89
2022-11-29T23:44:43.046Z,71.40
2022-11-29T23:47:11.974Z,71.28
2022-11-29T23:49:39.836Z,71.63
2022-11-29T23:52:07.520Z,71.80
2022-11-29T23:54:35.110Z,71.26
2022-11-29T23:57:02.719Z,71.84
2022-11-29T23:59:30.329Z,72.56
